EmailTwitter


Surface observations / France / LFBO (07630)

Regions: Quebec | Canada | USA | Europe | France | UK | Elsewhere
Station
Display
Info & Location for LFBO (07630) | Help decoding METAR

Weather Conditions observed on 2020/09/19 at 12:00 UTC at TOULOUSE/BLAGNAC, FR (LFBO)

Temperature: 27.0 Celsius.

Dewpoint: 15.0 Celsius.

Relative Humidity: 48%

Humidex: 31.

Winds: Southeast at 13 km/h or 7 knots.

Mean Sea level Pressure: 101.10 kilopascals.

Coded METAR:

LFBO 191200Z AUTO 14007KT 110V190 CAVOK 27/15 Q1011 NOSIG=